createdAt,value
2018-09-05T00:02:02.615Z,7.17
2018-09-05T00:04:30.937Z,6.73
2018-09-05T00:06:59.266Z,7.80
2018-09-05T00:09:27.568Z,9.80
2018-09-05T00:11:55.825Z,7.10
2018-09-05T00:14:24.212Z,7.57
2018-09-05T00:16:54.438Z,9.67
2018-09-05T00:19:22.759Z,7.23
2018-09-05T00:21:51.187Z,8.13
2018-09-05T00:24:19.471Z,9.57
2018-09-05T00:26:47.781Z,8.30
2018-09-05T00:29:16.156Z,10.50
2018-09-05T00:32:19.642Z,7.00
2018-09-05T00:34:47.973Z,6.77
2018-09-05T00:37:19.033Z,10.73
2018-09-05T00:39:47.500Z,8.40
2018-09-05T00:42:17.923Z,9.87
2018-09-05T00:44:46.306Z,9.00
2018-09-05T00:47:14.721Z,10.53
2018-09-05T00:49:43.092Z,14.07
2018-09-05T00:52:12.195Z,7.57
2018-09-05T00:54:40.652Z,8.27
2018-09-05T00:57:08.963Z,13.43
2018-09-05T00:59:37.297Z,8.40
2018-09-05T01:02:05.613Z,8.23
2018-09-05T01:04:33.944Z,7.33
2018-09-05T01:07:12.241Z,7.83
2018-09-05T01:09:40.532Z,9.93
2018-09-05T01:12:08.857Z,9.67
2018-09-05T01:14:37.147Z,11.17
2018-09-05T01:17:05.829Z,10.40
2018-09-05T01:19:34.115Z,9.07
2018-09-05T01:22:02.434Z,6.93
2018-09-05T01:24:30.768Z,11.00
2018-09-05T01:26:59.057Z,11.80
2018-09-05T01:29:27.357Z,9.57
2018-09-05T01:31:55.677Z,10.00
2018-09-05T01:34:24.016Z,8.47
2018-09-05T01:36:52.364Z,10.23
2018-09-05T01:39:20.670Z,9.93
2018-09-05T01:41:49.047Z,8.50
2018-09-05T01:44:17.378Z,12.47
2018-09-05T01:46:45.717Z,16.07
2018-09-05T01:49:14.048Z,13.10
2018-09-05T01:51:42.336Z,10.57
2018-09-05T01:54:10.633Z,13.13
2018-09-05T01:56:38.959Z,12.43
2018-09-05T01:59:07.223Z,8.20
2018-09-05T02:01:35.563Z,13.00
2018-09-05T02:04:03.944Z,11.40
2018-09-05T02:06:32.875Z,18.83
2018-09-05T02:09:01.164Z,10.13
2018-09-05T02:11:29.539Z,10.10
2018-09-05T02:13:57.876Z,11.53
2018-09-05T02:16:26.256Z,8.87
2018-09-05T02:18:54.575Z,11.13
2018-09-05T02:21:22.853Z,9.53
2018-09-05T02:23:51.121Z,9.87
2018-09-05T02:26:19.433Z,10.47
2018-09-05T02:28:47.740Z,8.37
2018-09-05T02:31:16.574Z,10.27
2018-09-05T02:33:44.907Z,9.03
2018-09-05T02:36:13.372Z,10.63
2018-09-05T02:38:41.692Z,17.37
2018-09-05T02:41:09.987Z,11.00
2018-09-05T02:43:43.699Z,9.33
2018-09-05T02:46:12.035Z,11.90
2018-09-05T02:48:41.005Z,10.37
2018-09-05T02:51:09.292Z,11.17
2018-09-05T02:53:37.983Z,11.47
2018-09-05T02:56:06.263Z,8.57
2018-09-05T02:58:35.178Z,10.20
2018-09-05T03:01:04.501Z,12.43
2018-09-05T03:03:32.928Z,12.17
2018-09-05T03:06:01.439Z,16.03
2018-09-05T03:08:29.731Z,11.93
2018-09-05T03:10:58.084Z,13.87
2018-09-05T03:13:26.415Z,11.90
2018-09-05T03:15:54.710Z,12.27
2018-09-05T03:18:23.060Z,12.23
2018-09-05T03:20:51.388Z,12.50
2018-09-05T03:23:19.703Z,11.57
2018-09-05T03:25:48.074Z,12.73
2018-09-05T03:28:16.480Z,10.40
2018-09-05T03:30:44.794Z,13.13
2018-09-05T03:33:13.231Z,13.60
2018-09-05T03:35:41.538Z,17.83
2018-09-05T03:38:09.831Z,16.47
2018-09-05T03:40:38.175Z,12.27
2018-09-05T03:43:06.544Z,9.30
2018-09-05T03:45:34.850Z,13.63
2018-09-05T03:48:03.170Z,13.60
2018-09-05T03:50:31.498Z,14.17
2018-09-05T03:52:59.826Z,12.97
2018-09-05T03:55:28.151Z,12.93
2018-09-05T03:57:56.439Z,12.73
2018-09-05T04:00:24.752Z,14.77
2018-09-05T04:02:53.072Z,21.90
2018-09-05T04:05:21.437Z,17.10
2018-09-05T04:07:49.747Z,19.13
2018-09-05T04:10:18.069Z,15.33
2018-09-05T04:12:46.491Z,13.33
2018-09-05T04:15:14.928Z,20.43
2018-09-05T04:17:43.241Z,13.47
2018-09-05T04:20:11.580Z,13.30
2018-09-05T04:22:39.888Z,16.23
2018-09-05T04:25:08.200Z,12.83
2018-09-05T04:27:36.511Z,18.47
2018-09-05T04:30:04.864Z,17.80
2018-09-05T04:32:33.133Z,16.93
2018-09-05T04:35:01.511Z,12.10
2018-09-05T04:37:29.844Z,15.27
2018-09-05T04:39:58.311Z,16.30
2018-09-05T04:42:26.687Z,12.27
2018-09-05T04:44:54.988Z,14.13
2018-09-05T04:47:23.378Z,12.13
2018-09-05T04:49:51.772Z,13.50
2018-09-05T04:52:20.317Z,12.43
2018-09-05T04:54:48.641Z,12.03
2018-09-05T04:57:17.029Z,12.60
2018-09-05T04:59:45.391Z,16.90
2018-09-05T05:02:13.762Z,16.63
2018-09-05T05:04:42.099Z,17.57
2018-09-05T05:07:10.435Z,18.63
2018-09-05T05:09:38.768Z,18.67
2018-09-05T05:12:07.406Z,14.97
2018-09-05T05:14:35.749Z,13.07
2018-09-05T05:17:04.192Z,12.17
2018-09-05T05:19:32.694Z,13.90
2018-09-05T05:22:01.014Z,14.23
2018-09-05T05:24:29.364Z,14.30
2018-09-05T05:26:57.679Z,13.53
2018-09-05T05:29:26.007Z,19.60
2018-09-05T05:31:54.319Z,15.07
2018-09-05T05:34:22.610Z,11.00
2018-09-05T05:36:50.884Z,17.40
2018-09-05T05:39:19.169Z,12.60
2018-09-05T05:41:47.435Z,10.77
2018-09-05T05:44:15.892Z,14.73
2018-09-05T05:46:44.222Z,15.53
2018-09-05T05:49:12.478Z,12.50
2018-09-05T05:51:40.804Z,13.50
2018-09-05T05:54:09.130Z,12.87
2018-09-05T05:56:37.432Z,16.63
2018-09-05T05:59:05.724Z,11.83
2018-09-05T06:01:34.044Z,11.80
2018-09-05T06:04:02.381Z,11.17
2018-09-05T06:06:30.719Z,12.53
2018-09-05T06:08:59.040Z,14.30
2018-09-05T06:11:27.397Z,12.43
2018-09-05T06:13:55.735Z,12.40
2018-09-05T06:16:24.016Z,12.97
2018-09-05T06:18:52.334Z,11.47
2018-09-05T06:21:20.680Z,14.00
2018-09-05T06:23:49.012Z,15.83
2018-09-05T06:26:17.319Z,13.90
2018-09-05T06:28:45.625Z,14.53
2018-09-05T06:31:14.030Z,10.40
2018-09-05T06:33:42.264Z,11.43
2018-09-05T06:36:10.607Z,14.80
2018-09-05T06:38:38.898Z,11.83
2018-09-05T06:41:07.214Z,11.03
2018-09-05T06:43:35.503Z,15.43
2018-09-05T06:46:03.839Z,13.10
2018-09-05T06:48:32.116Z,13.63
2018-09-05T06:51:06.203Z,9.87
2018-09-05T06:53:35.434Z,13.13
2018-09-05T06:56:04.247Z,12.13
2018-09-05T06:58:32.765Z,11.93
2018-09-05T07:01:01.117Z,16.17
2018-09-05T07:03:29.528Z,10.33
2018-09-05T07:05:57.844Z,12.47
2018-09-05T07:08:26.155Z,9.27
2018-09-05T07:10:54.449Z,10.43
2018-09-05T07:13:22.764Z,13.73
2018-09-05T07:15:51.080Z,11.43
2018-09-05T07:18:19.365Z,10.37
2018-09-05T07:20:47.840Z,9.20
2018-09-05T07:23:16.163Z,14.53
2018-09-05T07:25:44.444Z,11.33
2018-09-05T07:28:12.732Z,11.90
2018-09-05T07:30:41.159Z,9.33
2018-09-05T07:33:09.399Z,9.27
2018-09-05T07:35:37.789Z,8.83
2018-09-05T07:38:06.098Z,9.70
2018-09-05T07:40:34.418Z,10.37
2018-09-05T07:43:02.742Z,6.57
2018-09-05T07:45:31.112Z,8.67
2018-09-05T07:47:59.467Z,7.47
2018-09-05T07:50:27.815Z,9.30
2018-09-05T07:52:56.085Z,9.30
2018-09-05T07:55:24.439Z,10.63
2018-09-05T07:57:52.765Z,10.97
2018-09-05T08:00:21.108Z,7.70
2018-09-05T08:02:49.430Z,4.07
2018-09-05T08:05:17.734Z,9.33
2018-09-05T08:07:46.047Z,5.87
2018-09-05T08:10:14.363Z,5.37
2018-09-05T08:12:42.693Z,7.17
2018-09-05T08:15:10.979Z,8.87
2018-09-05T08:17:39.278Z,6.50
2018-09-05T08:20:07.622Z,8.20
2018-09-05T08:22:35.935Z,6.90
2018-09-05T08:25:04.251Z,5.07
2018-09-05T08:27:32.568Z,7.27
2018-09-05T08:30:00.916Z,4.53
2018-09-05T08:32:29.174Z,5.27
2018-09-05T08:34:57.636Z,5.23
2018-09-05T08:37:25.987Z,7.77
2018-09-05T08:39:54.113Z,5.93
2018-09-05T08:42:22.524Z,6.40
2018-09-05T08:44:51.130Z,5.97
2018-09-05T08:47:19.292Z,6.83
2018-09-05T08:49:47.545Z,8.83
2018-09-05T08:52:15.895Z,5.63
2018-09-05T08:54:44.195Z,5.30
2018-09-05T08:57:12.490Z,5.67
2018-09-05T08:59:40.848Z,5.07
2018-09-05T09:02:09.156Z,4.23
2018-09-05T09:04:37.507Z,6.33
2018-09-05T09:07:05.836Z,5.30
2018-09-05T09:09:34.185Z,4.53
2018-09-05T09:12:02.528Z,5.67
2018-09-05T09:14:30.867Z,7.57
2018-09-05T09:16:59.188Z,10.03
2018-09-05T09:19:27.475Z,6.70
2018-09-05T09:21:55.908Z,5.07
2018-09-05T09:24:24.248Z,5.10
2018-09-05T09:26:52.581Z,5.07
2018-09-05T09:29:20.884Z,5.27
2018-09-05T09:31:49.174Z,4.27
2018-09-05T09:34:17.464Z,6.27
2018-09-05T09:36:45.918Z,6.80
2018-09-05T09:39:14.207Z,3.73
2018-09-05T09:41:43.233Z,3.40
2018-09-05T09:44:12.119Z,4.57
2018-09-05T09:46:40.546Z,3.77
2018-09-05T09:49:08.828Z,3.37
2018-09-05T09:51:38.078Z,4.07
2018-09-05T09:54:06.505Z,5.30
2018-09-05T09:56:35.989Z,7.37
2018-09-05T09:59:04.324Z,2.90
2018-09-05T10:01:38.181Z,3.80
2018-09-05T10:04:12.750Z,6.13
2018-09-05T10:06:43.620Z,3.57
2018-09-05T10:09:17.334Z,3.60
2018-09-05T10:11:50.987Z,6.37
2018-09-05T10:14:24.748Z,3.83
2018-09-05T10:16:58.444Z,4.47
2018-09-05T10:19:26.744Z,6.03
2018-09-05T10:21:55.278Z,5.93
2018-09-05T10:24:23.856Z,4.87
2018-09-05T10:26:52.751Z,6.37
2018-09-05T10:29:21.038Z,3.57
2018-09-05T10:31:49.668Z,7.17
2018-09-05T10:34:18.003Z,4.27
2018-09-05T10:36:46.283Z,5.63
2018-09-05T10:39:14.590Z,5.73
2018-09-05T10:41:42.901Z,3.23
2018-09-05T10:44:11.219Z,4.47
2018-09-05T10:46:39.570Z,4.20
2018-09-05T10:49:08.491Z,3.67
2018-09-05T10:51:42.545Z,5.50
2018-09-05T10:54:10.852Z,4.53
2018-09-05T10:56:39.208Z,3.70
2018-09-05T10:59:07.503Z,4.37
2018-09-05T11:01:35.836Z,3.10
2018-09-05T11:04:04.197Z,4.73
2018-09-05T11:06:32.459Z,4.37
2018-09-05T11:09:00.747Z,4.53
2018-09-05T11:11:29.044Z,4.87
2018-09-05T11:13:57.349Z,5.17
2018-09-05T11:16:25.659Z,4.77
2018-09-05T11:18:53.979Z,4.90
2018-09-05T11:21:22.381Z,4.27
2018-09-05T11:23:50.668Z,6.20
2018-09-05T11:26:18.935Z,3.20
2018-09-05T11:28:47.233Z,4.33
2018-09-05T11:31:15.563Z,4.57
2018-09-05T11:33:43.917Z,7.17
2018-09-05T11:36:12.217Z,4.03
2018-09-05T11:38:40.534Z,4.80
2018-09-05T11:41:09.156Z,4.70
2018-09-05T11:43:37.743Z,4.17
2018-09-05T11:46:06.220Z,5.33
2018-09-05T11:48:34.518Z,3.63
2018-09-05T11:51:02.836Z,5.60
2018-09-05T11:53:31.119Z,4.03
2018-09-05T11:55:59.436Z,8.23
2018-09-05T11:58:27.730Z,4.50
2018-09-05T12:00:56.127Z,5.70
2018-09-05T12:03:24.451Z,5.30
2018-09-05T12:05:52.996Z,4.03
2018-09-05T12:08:21.316Z,5.23
2018-09-05T12:10:50.181Z,4.87
2018-09-05T12:13:18.518Z,4.47
2018-09-05T12:15:46.798Z,7.13
2018-09-05T12:18:15.121Z,4.93
2018-09-05T12:20:43.413Z,4.13
2018-09-05T12:23:11.727Z,8.00
2018-09-05T12:25:40.031Z,5.10
2018-09-05T12:28:08.340Z,5.27
2018-09-05T12:30:36.652Z,10.47
2018-09-05T12:33:04.965Z,4.33
2018-09-05T12:35:33.280Z,5.57
2018-09-05T12:38:01.692Z,6.70
2018-09-05T12:40:29.993Z,4.67
2018-09-05T12:42:58.311Z,4.23
2018-09-05T12:45:26.658Z,6.00
2018-09-05T12:47:55.868Z,4.60
2018-09-05T12:50:24.500Z,6.47
2018-09-05T12:52:53.520Z,9.60
2018-09-05T12:55:21.835Z,4.83
2018-09-05T12:57:50.154Z,7.00
2018-09-05T13:00:18.509Z,11.20
2018-09-05T13:02:46.830Z,5.47
2018-09-05T13:05:15.196Z,10.20
2018-09-05T13:07:43.497Z,3.27
2018-09-05T13:10:11.972Z,4.63
2018-09-05T13:12:40.323Z,5.87
2018-09-05T13:15:08.606Z,5.20
2018-09-05T13:17:36.887Z,4.30
2018-09-05T13:20:08.313Z,3.60
2018-09-05T13:22:36.763Z,7.97
2018-09-05T13:25:05.049Z,5.43
2018-09-05T13:27:33.387Z,4.07
2018-09-05T13:30:01.710Z,4.60
2018-09-05T13:32:30.010Z,4.33
2018-09-05T13:34:58.371Z,7.63
2018-09-05T13:37:26.710Z,4.87
2018-09-05T13:39:55.007Z,7.00
2018-09-05T13:42:23.320Z,6.53
2018-09-05T13:44:51.629Z,5.53
2018-09-05T13:47:19.958Z,5.63
2018-09-05T13:49:48.330Z,5.63
2018-09-05T13:52:17.212Z,6.27
2018-09-05T13:54:45.532Z,5.57
2018-09-05T13:57:13.980Z,6.37
2018-09-05T13:59:42.399Z,5.73
2018-09-05T14:02:10.723Z,5.73
2018-09-05T14:04:39.067Z,4.23
2018-09-05T14:07:07.737Z,5.03
2018-09-05T14:09:37.036Z,14.07
2018-09-05T14:12:06.491Z,3.70
2018-09-05T14:14:36.449Z,4.17
2018-09-05T14:17:04.868Z,6.30
2018-09-05T14:19:33.167Z,4.37
2018-09-05T14:22:01.614Z,6.50
2018-09-05T14:24:29.944Z,4.07
2018-09-05T14:26:58.279Z,11.90
2018-09-05T14:29:26.616Z,5.70
2018-09-05T14:31:54.917Z,9.87
2018-09-05T14:34:23.299Z,6.03
2018-09-05T14:36:51.691Z,5.77
2018-09-05T14:39:20.057Z,5.73
2018-09-05T14:41:48.381Z,4.60
2018-09-05T14:44:16.848Z,9.43
2018-09-05T14:46:45.379Z,5.80
2018-09-05T14:49:13.708Z,4.10
2018-09-05T14:51:42.037Z,5.30
2018-09-05T14:54:10.385Z,8.07
2018-09-05T14:56:39.516Z,3.83
2018-09-05T14:59:07.879Z,4.77
2018-09-05T15:01:36.283Z,5.77
2018-09-05T15:04:05.112Z,3.80
2018-09-05T15:06:33.804Z,4.93
2018-09-05T15:09:02.010Z,4.67
2018-09-05T15:11:30.357Z,4.77
2018-09-05T15:13:59.496Z,7.73
2018-09-05T15:16:28.482Z,5.23
2018-09-05T15:18:56.960Z,5.23
2018-09-05T15:21:25.251Z,5.47
2018-09-05T15:23:53.571Z,6.30
2018-09-05T15:26:21.900Z,7.00
2018-09-05T15:28:50.238Z,6.20
2018-09-05T15:31:18.516Z,6.60
2018-09-05T15:33:46.802Z,6.63
2018-09-05T15:36:15.091Z,5.27
2018-09-05T15:38:43.417Z,4.20
2018-09-05T15:41:11.732Z,6.50
2018-09-05T15:43:40.078Z,5.20
2018-09-05T15:46:08.428Z,5.23
2018-09-05T15:48:36.755Z,4.17
2018-09-05T15:51:05.137Z,5.30
2018-09-05T15:53:33.440Z,4.60
2018-09-05T15:56:01.743Z,7.63
2018-09-05T15:58:30.067Z,4.43
2018-09-05T16:00:58.387Z,5.23
2018-09-05T16:03:26.804Z,13.47
2018-09-05T16:05:55.124Z,5.37
2018-09-05T16:08:23.517Z,4.70
2018-09-05T16:10:51.883Z,4.13
2018-09-05T16:13:20.447Z,5.00
2018-09-05T16:15:48.867Z,5.90
2018-09-05T16:18:17.186Z,7.73
2018-09-05T16:20:45.572Z,6.80
2018-09-05T16:23:14.154Z,7.17
2018-09-05T16:25:42.488Z,6.43
2018-09-05T16:28:10.785Z,6.23
2018-09-05T16:30:39.786Z,4.50
2018-09-05T16:33:08.435Z,7.83
2018-09-05T16:35:36.790Z,7.17
2018-09-05T16:38:05.421Z,6.27
2018-09-05T16:40:33.924Z,5.10
2018-09-05T16:43:02.501Z,5.03
2018-09-05T16:45:30.834Z,4.43
2018-09-05T16:47:59.542Z,3.63
2018-09-05T16:50:28.794Z,4.13
2018-09-05T16:52:57.199Z,4.33
2018-09-05T16:55:25.566Z,7.13
2018-09-05T16:57:54.098Z,8.30
2018-09-05T17:00:22.423Z,6.73
2018-09-05T17:02:52.425Z,6.30
2018-09-05T17:05:20.926Z,6.23
2018-09-05T17:07:49.456Z,5.57
2018-09-05T17:10:17.801Z,6.03
2018-09-05T17:12:47.341Z,5.80
2018-09-05T17:15:15.692Z,7.37
2018-09-05T17:17:44.016Z,3.93
2018-09-05T17:20:12.438Z,4.67
2018-09-05T17:22:40.818Z,4.53
2018-09-05T17:25:09.705Z,9.03
2018-09-05T17:27:38.051Z,4.67
2018-09-05T17:30:06.382Z,6.27
2018-09-05T17:32:34.732Z,6.00
2018-09-05T17:35:03.096Z,5.20
2018-09-05T17:37:31.416Z,5.47
2018-09-05T17:39:59.737Z,7.30
2018-09-05T17:42:28.151Z,7.10
2018-09-05T17:44:56.496Z,4.87
2018-09-05T17:47:24.873Z,5.70
2018-09-05T17:49:53.195Z,5.30
2018-09-05T17:52:21.525Z,6.10
2018-09-05T17:54:50.201Z,7.30
2018-09-05T17:57:18.603Z,6.07
2018-09-05T17:59:46.975Z,6.47
2018-09-05T18:02:15.315Z,9.87
2018-09-05T18:04:43.654Z,6.17
2018-09-05T18:07:12.031Z,5.90
2018-09-05T18:09:40.351Z,8.00
2018-09-05T18:12:08.644Z,5.77
2018-09-05T18:14:37.019Z,8.53
2018-09-05T18:17:05.404Z,4.93
2018-09-05T18:19:33.723Z,7.40
2018-09-05T18:22:02.000Z,6.80
2018-09-05T18:24:30.331Z,6.00
2018-09-05T18:26:58.696Z,6.43
2018-09-05T18:29:27.510Z,7.73
2018-09-05T18:31:55.806Z,8.70
2018-09-05T18:34:24.103Z,8.00
2018-09-05T18:36:52.409Z,7.90
2018-09-05T18:39:20.739Z,6.33
2018-09-05T18:41:49.191Z,6.30
2018-09-05T18:44:17.628Z,9.17
2018-09-05T18:46:45.954Z,6.37
2018-09-05T18:49:14.374Z,8.43
2018-09-05T18:51:42.702Z,7.03
2018-09-05T18:54:11.015Z,5.47
2018-09-05T18:56:39.370Z,42.63
2018-09-05T18:59:07.810Z,9.70
2018-09-05T19:01:36.413Z,8.10
2018-09-05T19:04:04.776Z,9.17
2018-09-05T19:06:33.293Z,6.97
2018-09-05T19:09:01.669Z,6.50
2018-09-05T19:11:36.980Z,10.27
2018-09-05T19:14:05.326Z,4.90
2018-09-05T19:16:33.587Z,4.53
2018-09-05T19:19:01.878Z,7.73
2018-09-05T19:21:30.551Z,6.93
2018-09-05T19:23:58.902Z,7.53
2018-09-05T19:26:27.186Z,9.77
2018-09-05T19:28:55.576Z,8.17
2018-09-05T19:31:23.947Z,7.70
2018-09-05T19:33:52.456Z,17.07
2018-09-05T19:36:20.761Z,9.40
2018-09-05T19:38:49.095Z,9.73
2018-09-05T19:41:17.440Z,9.93
2018-09-05T19:43:45.799Z,14.63
2018-09-05T19:46:14.127Z,10.27
2018-09-05T19:48:42.444Z,8.17
2018-09-05T19:51:10.719Z,8.73
2018-09-05T19:53:39.100Z,8.37
2018-09-05T19:56:07.427Z,9.10
2018-09-05T19:58:35.756Z,9.27
2018-09-05T20:01:04.074Z,7.97
2018-09-05T20:03:32.468Z,7.93
2018-09-05T20:06:00.806Z,5.40
2018-09-05T20:08:29.475Z,17.73
2018-09-05T20:10:57.867Z,10.23
2018-09-05T20:13:26.191Z,8.30
2018-09-05T20:15:54.516Z,4.73
2018-09-05T20:18:22.895Z,6.77
2018-09-05T20:20:51.269Z,4.37
2018-09-05T20:23:19.638Z,14.67
2018-09-05T20:25:47.972Z,6.63
2018-09-05T20:28:16.286Z,7.07
2018-09-05T20:30:45.096Z,7.23
2018-09-05T20:33:13.463Z,9.90
2018-09-05T20:35:41.757Z,6.63
2018-09-05T20:38:10.217Z,5.13
2018-09-05T20:40:38.711Z,6.00
2018-09-05T20:43:07.071Z,4.87
2018-09-05T20:45:36.013Z,9.90
2018-09-05T20:48:04.446Z,4.93
2018-09-05T20:50:32.781Z,10.27
2018-09-05T20:53:01.142Z,6.40
2018-09-05T20:55:29.464Z,14.17
2018-09-05T20:57:57.864Z,11.67
2018-09-05T21:00:26.244Z,4.90
2018-09-05T21:02:54.619Z,8.40
2018-09-05T21:05:22.946Z,6.07
2018-09-05T21:07:51.267Z,6.47
2018-09-05T21:10:19.606Z,5.47
2018-09-05T21:12:48.190Z,5.93
2018-09-05T21:15:16.636Z,9.07
2018-09-05T21:17:44.987Z,6.77
2018-09-05T21:20:14.502Z,5.93
2018-09-05T21:22:43.136Z,9.33
2018-09-05T21:25:13.200Z,6.00
2018-09-05T21:27:41.714Z,9.03
2018-09-05T21:30:10.043Z,4.30
2018-09-05T21:32:38.361Z,5.97
2018-09-05T21:35:06.971Z,6.10
2018-09-05T21:37:35.327Z,6.50
2018-09-05T21:40:03.676Z,5.93
2018-09-05T21:42:32.046Z,5.03
2018-09-05T21:45:00.471Z,5.03
2018-09-05T21:47:28.775Z,11.47
2018-09-05T21:49:57.503Z,6.27
2018-09-05T21:52:25.895Z,4.90
2018-09-05T21:54:54.220Z,7.67
2018-09-05T21:57:22.548Z,8.93
2018-09-05T21:59:51.356Z,7.03
2018-09-05T22:02:19.986Z,5.03
2018-09-05T22:04:48.374Z,5.50
2018-09-05T22:07:16.792Z,7.37
2018-09-05T22:09:45.241Z,7.67
2018-09-05T22:12:13.692Z,4.90
2018-09-05T22:14:42.138Z,4.93
2018-09-05T22:17:11.019Z,6.73
2018-09-05T22:19:39.783Z,5.27
2018-09-05T22:22:08.164Z,7.40
2018-09-05T22:24:36.803Z,5.83
2018-09-05T22:27:05.280Z,5.10
2018-09-05T22:30:00.125Z,4.03
2018-09-05T22:32:28.558Z,11.20
2018-09-05T22:34:56.992Z,3.83
2018-09-05T22:37:25.299Z,3.47
2018-09-05T22:39:54.412Z,3.37
2018-09-05T22:42:22.738Z,7.40
2018-09-05T22:45:02.509Z,7.80
2018-09-05T22:47:42.453Z,5.30
2018-09-05T22:51:57.856Z,6.43
2018-09-05T22:54:41.688Z,5.70
2018-09-05T23:00:26.717Z,3.70
2018-09-05T23:03:13.274Z,6.27
2018-09-05T23:08:06.053Z,4.27
2018-09-05T23:10:45.692Z,5.83
2018-09-05T23:13:25.436Z,5.47
2018-09-05T23:16:05.398Z,6.17
2018-09-05T23:18:45.160Z,4.97
2018-09-05T23:21:19.183Z,9.60
2018-09-05T23:23:59.940Z,5.10
2018-09-05T23:26:28.517Z,5.77
2018-09-05T23:28:57.043Z,5.83
2018-09-05T23:31:25.713Z,7.80
2018-09-05T23:33:54.129Z,7.23
2018-09-05T23:36:22.855Z,5.37
2018-09-05T23:38:51.212Z,5.03
2018-09-05T23:41:19.580Z,5.67
2018-09-05T23:43:48.505Z,9.43
2018-09-05T23:46:16.981Z,4.50
2018-09-05T23:48:45.367Z,5.93
2018-09-05T23:51:13.710Z,6.30
2018-09-05T23:53:42.063Z,7.23
2018-09-05T23:56:10.398Z,4.57
2018-09-05T23:58:39.048Z,4.90
